Time;durP1;ratioP1;P1;durP2;ratioP2;P2;SDS_P1;SDS_P2;PMS_P1;PMS_P2;Temp;Humidity;BMP_temperature;BMP_pressure;BME280_temperature;BME280_humidity;BME280_pressure;Samples;Min_cycle;Max_cycle;Signal;HPM_P1;HPM_P2
2023/04/16 00:00:22;;;;;;;13.65;7.13;;;5.10;99.90;;;;;;7587848;19;20029;-71
2023/04/16 00:02:54;;;;;;;14.10;8.30;;;5.10;99.90;;;;;;7576876;19;20014;-71
2023/04/16 00:05:27;;;;;;;9.90;6.72;;;5.10;99.90;;;;;;7569996;19;20069;-71
2023/04/16 00:07:59;;;;;;;11.10;6.55;;;5.10;99.90;;;;;;7577303;19;20033;-70
2023/04/16 00:10:33;;;;;;;14.77;9.10;;;5.10;99.90;;;;;;7580570;19;20025;-70
2023/04/16 00:13:05;;;;;;;;;;;5.00;99.90;;;;;;7582577;19;20022;-71
2023/04/16 00:15:38;;;;;;;13.40;7.75;;;5.10;99.90;;;;;;7580513;19;20576;-71
2023/04/16 00:18:10;;;;;;;12.55;7.05;;;5.10;99.90;;;;;;7583554;19;20022;-70
2023/04/16 00:20:43;;;;;;;14.47;8.90;;;5.10;99.90;;;;;;7567596;19;20506;-69
2023/04/16 00:23:16;;;;;;;13.45;8.68;;;5.00;99.90;;;;;;7546754;19;20055;-71
2023/04/16 00:25:48;;;;;;;14.80;9.10;;;5.00;99.90;;;;;;7565569;19;20082;-71
2023/04/16 00:28:20;;;;;;;15.90;9.45;;;5.10;99.90;;;;;;7571790;19;20941;-71
2023/04/16 00:30:53;;;;;;;14.40;9.63;;;5.00;99.90;;;;;;7582509;19;20098;-70
2023/04/16 00:33:25;;;;;;;20.38;9.80;;;5.00;99.90;;;;;;7569588;19;20018;-70
2023/04/16 00:35:57;;;;;;;14.73;8.82;;;5.00;99.90;;;;;;7576577;19;20029;-70
2023/04/16 00:38:31;;;;;;;18.23;10.00;;;5.10;99.90;;;;;;7580345;19;20048;-70
2023/04/16 00:41:03;;;;;;;15.75;9.13;;;5.10;99.90;;;;;;7581220;19;20015;-71
2023/04/16 00:43:36;;;;;;;17.42;9.52;;;5.10;99.90;;;;;;7580742;19;20037;-70
2023/04/16 00:46:09;;;;;;;14.80;8.00;;;5.20;99.90;;;;;;7567669;19;21420;-70
2023/04/16 00:48:43;;;;;;;15.20;9.95;;;5.20;99.90;;;;;;7572300;19;20014;-70
2023/04/16 00:51:17;;;;;;;15.40;9.10;;;5.20;99.90;;;;;;7575088;19;20035;-70
2023/04/16 00:53:50;;;;;;;13.25;7.40;;;5.20;99.90;;;;;;7562691;19;21622;-69
2023/04/16 00:56:23;;;;;;;12.13;7.03;;;5.30;99.90;;;;;;7569861;19;20018;-70
2023/04/16 00:58:56;;;;;;;18.95;9.00;;;5.10;99.90;;;;;;7529125;19;20825;-70
2023/04/16 01:01:28;;;;;;;16.48;9.15;;;5.10;99.90;;;;;;6553933;19;9999880;-71
2023/04/16 01:04:01;;;;;;;13.05;7.53;;;5.10;99.90;;;;;;7567627;19;20033;-70
2023/04/16 01:06:33;;;;;;;15.43;10.05;;;5.10;99.90;;;;;;7568916;19;20006;-70
2023/04/16 01:09:05;;;;;;;17.40;10.45;;;5.10;99.90;;;;;;7556731;19;20018;-70
2023/04/16 01:11:38;;;;;;;21.50;9.23;;;5.00;99.90;;;;;;7580362;19;20022;-69
2023/04/16 01:14:10;;;;;;;16.05;9.00;;;5.10;99.90;;;;;;7569567;19;20098;-70
2023/04/16 01:16:43;;;;;;;14.90;8.65;;;5.10;99.90;;;;;;7571639;19;20998;-70
2023/04/16 01:19:15;;;;;;;13.25;8.82;;;5.10;99.90;;;;;;7580017;19;20014;-70
2023/04/16 01:21:47;;;;;;;19.80;10.98;;;5.10;99.90;;;;;;7580723;19;20015;-70
2023/04/16 01:24:19;;;;;;;15.85;9.52;;;5.00;99.90;;;;;;7569674;19;20018;-70
2023/04/16 01:26:51;;;;;;;14.95;9.88;;;5.00;99.90;;;;;;7573262;19;20022;-71
2023/04/16 01:29:24;;;;;;;15.13;10.15;;;5.00;99.90;;;;;;7574974;19;20150;-70
2023/04/16 01:31:58;;;;;;;15.55;9.82;;;5.10;99.90;;;;;;7574687;19;20767;-70
2023/04/16 01:34:40;;;;;;;17.02;9.85;;;5.10;99.90;;;;;;7571416;19;20022;-70
2023/04/16 01:37:14;;;;;;;16.33;10.18;;;5.00;99.90;;;;;;7528242;19;20010;-69
2023/04/16 01:39:46;;;;;;;16.35;10.95;;;5.00;99.90;;;;;;7553410;19;20014;-70
2023/04/16 01:42:18;;;;;;;16.00;10.45;;;5.00;99.90;;;;;;7562989;19;20026;-70
2023/04/16 01:44:50;;;;;;;17.65;10.98;;;5.00;99.90;;;;;;7543243;19;20021;-70
2023/04/16 01:47:23;;;;;;;15.88;10.02;;;5.00;99.90;;;;;;7562187;19;20082;-70
2023/04/16 01:49:56;;;;;;;15.90;10.20;;;5.00;99.90;;;;;;7561736;19;22569;-71
2023/04/16 01:52:29;;;;;;;17.80;9.68;;;5.10;99.90;;;;;;7540466;19;20015;-69
2023/04/16 01:55:01;;;;;;;16.92;10.30;;;5.10;99.90;;;;;;7538958;19;20011;-70
2023/04/16 01:57:33;;;;;;;16.08;10.35;;;5.10;99.90;;;;;;7550583;19;20018;-69
2023/04/16 02:00:07;;;;;;;19.02;10.07;;;5.00;99.90;;;;;;7544671;19;20030;-69
2023/04/16 02:02:49;;;;;;;18.92;10.13;;;5.00;99.90;;;;;;7528348;19;20569;-70
2023/04/16 02:05:29;;;;;;;16.52;10.40;;;5.00;99.90;;;;;;7541815;19;20680;-70
2023/04/16 02:08:02;;;;;;;15.30;9.88;;;5.00;99.90;;;;;;7547068;19;20444;-69
2023/04/16 02:10:34;;;;;;;13.32;8.40;;;5.00;99.90;;;;;;7550064;19;20679;-69
2023/04/16 02:13:07;;;;;;;14.15;8.82;;;5.10;99.90;;;;;;7554409;19;20014;-69
2023/04/16 02:15:39;;;;;;;15.18;9.95;;;5.10;99.90;;;;;;7557296;19;20775;-70
2023/04/16 02:18:12;;;;;;;14.83;10.10;;;5.10;99.90;;;;;;7565475;19;20336;-69
2023/04/16 02:20:46;;;;;;;14.77;7.93;;;5.10;99.90;;;;;;7552099;19;20294;-70
2023/04/16 02:23:18;;;;;;;15.27;9.57;;;5.10;99.90;;;;;;7554916;19;20030;-69
2023/04/16 02:25:51;;;;;;;16.87;10.10;;;5.00;99.90;;;;;;7547103;19;20081;-70
2023/04/16 02:28:23;;;;;;;15.55;5.88;;;5.00;99.90;;;;;;7574211;19;20102;-69
2023/04/16 02:30:55;;;;;;;14.25;9.07;;;5.20;99.90;;;;;;7563000;19;20021;-69
2023/04/16 02:33:30;;;;;;;12.15;8.18;;;5.10;99.90;;;;;;7550696;19;20014;-69
2023/04/16 02:36:06;;;;;;;15.90;9.90;;;5.20;99.90;;;;;;7565347;19;20506;-69
2023/04/16 02:38:38;;;;;;;15.35;9.90;;;5.10;99.90;;;;;;7558652;19;20014;-70
2023/04/16 02:41:11;;;;;;;13.47;8.93;;;5.10;99.90;;;;;;7570355;19;20025;-70
2023/04/16 02:43:43;;;;;;;17.33;9.90;;;5.10;99.90;;;;;;7547531;19;20017;-69
2023/04/16 02:46:16;;;;;;;17.00;10.10;;;5.10;99.90;;;;;;7571129;19;20941;-69
2023/04/16 02:48:48;;;;;;;15.50;9.68;;;5.00;99.90;;;;;;7557569;19;20019;-70
2023/04/16 02:51:20;;;;;;;16.80;9.95;;;5.00;99.90;;;;;;7549289;19;20014;-69
2023/04/16 02:53:52;;;;;;;14.15;9.20;;;5.00;99.90;;;;;;7552459;19;20138;-69
2023/04/16 02:56:25;;;;;;;17.50;10.80;;;5.00;99.90;;;;;;7568982;19;20087;-70
2023/04/16 02:58:57;;;;;;;19.08;11.63;;;4.90;99.90;;;;;;7562935;19;20020;-70
2023/04/16 03:01:30;;;;;;;20.88;11.02;;;4.90;99.90;;;;;;7555101;19;20030;-69
2023/04/16 03:04:03;;;;;;;18.60;10.27;;;4.90;99.90;;;;;;7555876;19;21057;-69
2023/04/16 03:06:35;;;;;;;15.60;8.88;;;4.90;99.90;;;;;;7544986;19;20022;-70
2023/04/16 03:09:07;;;;;;;17.25;11.18;;;5.00;99.90;;;;;;7549705;19;20086;-69
2023/04/16 03:11:40;;;;;;;15.98;10.10;;;5.00;99.90;;;;;;7571624;19;20778;-69
2023/04/16 03:14:12;;;;;;;15.15;9.85;;;4.90;99.90;;;;;;7547606;19;20018;-69
2023/04/16 03:16:45;;;;;;;16.02;10.52;;;5.00;99.90;;;;;;7570248;19;20588;-70
2023/04/16 03:19:17;;;;;;;15.68;9.82;;;4.90;99.90;;;;;;7550167;19;20026;-69
2023/04/16 03:21:50;;;;;;;12.55;8.20;;;5.00;99.90;;;;;;7551622;19;20038;-70
2023/04/16 03:24:22;;;;;;;14.30;9.02;;;5.00;99.90;;;;;;7565540;19;20030;-70
2023/04/16 03:26:56;;;;;;;16.27;10.18;;;5.00;99.90;;;;;;7560544;19;20027;-70
2023/04/16 03:29:29;;;;;;;14.30;8.25;;;5.10;99.90;;;;;;7553003;19;20537;-69
2023/04/16 03:32:02;;;;;;;14.25;9.60;;;5.20;99.90;;;;;;7563968;19;20022;-70
2023/04/16 03:34:35;;;;;;;15.68;8.73;;;5.10;99.90;;;;;;7550317;19;20017;-70
2023/04/16 03:37:10;;;;;;;11.63;6.68;;;5.10;99.90;;;;;;7565215;19;20415;-70
2023/04/16 03:39:43;;;;;;;13.70;9.15;;;5.20;99.90;;;;;;7561530;19;20899;-70
2023/04/16 03:42:16;;;;;;;12.27;7.97;;;5.10;99.90;;;;;;7560980;19;20063;-70
2023/04/16 03:44:48;;;;;;;11.73;7.63;;;5.10;99.90;;;;;;7560123;19;20666;-70
2023/04/16 03:47:21;;;;;;;14.35;8.38;;;5.20;99.90;;;;;;7560088;19;20050;-69
2023/04/16 03:49:56;;;;;;;14.05;9.00;;;5.00;99.90;;;;;;7549900;19;20108;-70
2023/04/16 03:52:28;;;;;;;11.63;7.70;;;5.10;99.90;;;;;;7547199;19;20019;-69
2023/04/16 03:55:02;;;;;;;13.82;8.77;;;5.10;99.90;;;;;;7558257;19;20025;-70
2023/04/16 03:57:35;;;;;;;13.35;8.75;;;5.00;99.90;;;;;;7549802;19;20889;-69
2023/04/16 04:00:13;;;;;;;13.05;8.60;;;5.10;99.90;;;;;;7535528;19;20023;-70
2023/04/16 04:02:45;;;;;;;11.10;7.50;;;5.00;99.90;;;;;;7545961;19;20030;-69
2023/04/16 04:05:23;;;;;;;10.43;6.32;;;5.10;99.90;;;;;;7548238;19;20022;-70
2023/04/16 04:07:56;;;;;;;12.55;8.52;;;5.10;99.90;;;;;;7562491;19;20018;-70
2023/04/16 04:10:31;;;;;;;11.02;7.85;;;5.10;99.90;;;;;;7561778;19;20262;-69
2023/04/16 04:13:05;;;;;;;13.80;8.45;;;5.10;99.90;;;;;;7551395;19;20137;-69
2023/04/16 04:15:39;;;;;;;15.15;8.63;;;5.10;99.90;;;;;;7557106;19;20010;-72
2023/04/16 04:18:11;;;;;;;12.63;8.57;;;5.00;99.90;;;;;;7559045;19;20010;-70
2023/04/16 04:20:44;;;;;;;13.50;8.57;;;5.00;99.90;;;;;;7572489;19;20056;-69
2023/04/16 04:23:19;;;;;;;13.90;8.60;;;5.00;99.90;;;;;;7570762;19;20023;-70
2023/04/16 04:25:52;;;;;;;12.35;8.63;;;5.00;99.90;;;;;;7549231;19;20700;-69
2023/04/16 04:28:25;;;;;;;13.07;8.50;;;5.00;99.90;;;;;;7560933;19;20015;-70
2023/04/16 04:30:58;;;;;;;12.40;7.82;;;5.00;99.90;;;;;;7558250;19;20042;-69
2023/04/16 04:33:30;;;;;;;13.60;9.25;;;5.00;99.90;;;;;;7566435;19;20036;-69
2023/04/16 04:36:03;;;;;;;14.30;8.00;;;5.00;99.90;;;;;;7538253;19;21058;-69
2023/04/16 04:38:37;;;;;;;13.10;8.55;;;5.00;99.90;;;;;;7553305;19;20018;-69
2023/04/16 04:41:09;;;;;;;12.00;7.93;;;5.00;99.90;;;;;;7533317;19;20030;-69
2023/04/16 04:43:43;;;;;;;12.65;8.13;;;5.10;99.90;;;;;;7559211;19;20021;-70
2023/04/16 04:46:16;;;;;;;15.95;10.27;;;5.00;99.90;;;;;;7556275;19;20865;-70
2023/04/16 04:48:49;;;;;;;13.90;9.03;;;5.00;99.90;;;;;;7570769;19;20050;-70
2023/04/16 04:51:22;;;;;;;13.98;9.77;;;5.00;99.90;;;;;;7545189;19;21159;-71
2023/04/16 04:53:54;;;;;;;12.05;8.15;;;4.90;99.90;;;;;;7565200;19;20057;-70
2023/04/16 04:56:26;;;;;;;15.73;9.25;;;4.90;99.90;;;;;;7543043;19;20022;-70
2023/04/16 04:58:58;;;;;;;9.98;5.97;;;5.00;99.90;;;;;;7561546;19;20489;-70
2023/04/16 05:01:31;;;;;;;13.32;8.05;;;5.10;99.90;;;;;;7562751;19;20010;-70
2023/04/16 05:04:03;;;;;;;13.82;8.80;;;5.00;99.90;;;;;;7538673;19;20492;-70
2023/04/16 05:06:35;;;;;;;11.60;8.02;;;5.00;99.90;;;;;;7553290;19;20090;-70
2023/04/16 05:09:11;;;;;;;14.18;8.82;;;5.00;99.90;;;;;;7561757;19;20014;-70
2023/04/16 05:11:43;;;;;;;9.50;6.82;;;4.90;99.90;;;;;;7570424;19;20027;-70
2023/04/16 05:14:15;;;;;;;11.13;7.35;;;5.00;99.90;;;;;;7548964;19;20013;-70
2023/04/16 05:16:48;;;;;;;11.63;7.15;;;5.00;99.90;;;;;;7565085;19;20010;-70
2023/04/16 05:19:20;;;;;;;10.68;7.03;;;5.00;99.90;;;;;;7560242;19;20029;-70
2023/04/16 05:21:53;;;;;;;8.95;6.30;;;5.00;99.90;;;;;;7560810;19;20600;-70
2023/04/16 05:24:25;;;;;;;8.83;6.10;;;5.00;99.90;;;;;;7548425;19;20090;-70
2023/04/16 05:26:57;;;;;;;9.82;6.38;;;5.10;99.90;;;;;;7559179;19;20025;-70
2023/04/16 05:29:30;;;;;;;11.70;6.27;;;4.90;99.90;;;;;;7569705;19;20014;-70
2023/04/16 05:32:03;;;;;;;7.70;5.28;;;5.00;99.90;;;;;;7553443;19;20957;-71
2023/04/16 05:34:35;;;;;;;6.95;5.13;;;5.00;99.90;;;;;;7564317;19;20019;-70
2023/04/16 05:37:08;;;;;;;8.88;5.50;;;5.00;99.90;;;;;;7548009;19;20023;-70
2023/04/16 05:39:40;;;;;;;7.90;5.70;;;4.90;99.90;;;;;;7559846;19;20024;-70
2023/04/16 05:42:12;;;;;;;7.18;5.38;;;4.90;99.90;;;;;;7547263;19;20197;-70
2023/04/16 05:44:44;;;;;;;5.53;4.25;;;4.90;99.90;;;;;;7556889;19;20244;-70
2023/04/16 05:47:17;;;;;;;6.55;4.53;;;4.90;99.90;;;;;;7541256;19;20106;-70
2023/04/16 05:49:49;;;;;;;7.57;4.75;;;4.90;99.90;;;;;;7557000;19;20022;-70
2023/04/16 05:52:22;;;;;;;6.03;4.22;;;5.00;99.90;;;;;;7543543;19;20022;-70
2023/04/16 05:54:54;;;;;;;6.00;4.20;;;5.10;99.90;;;;;;7551304;19;20014;-72
2023/04/16 05:57:29;;;;;;;5.90;4.22;;;5.10;99.90;;;;;;7488789;19;20015;-71
2023/04/16 06:00:02;;;;;;;8.75;4.15;;;5.20;99.90;;;;;;7507311;19;20614;-73
2023/04/16 06:02:42;;;;;;;5.22;3.75;;;5.20;99.90;;;;;;7528897;19;20022;-70
2023/04/16 06:05:15;;;;;;;5.40;4.22;;;5.20;99.90;;;;;;7526713;19;21618;-70
2023/04/16 06:07:48;;;;;;;4.68;3.40;;;5.10;99.90;;;;;;7526141;19;20021;-70
2023/04/16 06:10:20;;;;;;;4.72;3.50;;;5.10;99.90;;;;;;7539439;19;20018;-71
2023/04/16 06:12:53;;;;;;;5.15;3.78;;;5.10;99.90;;;;;;7545731;19;20117;-70
2023/04/16 06:15:25;;;;;;;2.90;2.30;;;5.00;99.90;;;;;;7528786;19;21015;-70
2023/04/16 06:17:57;;;;;;;4.18;3.00;;;5.10;99.90;;;;;;7526618;19;21333;-70
2023/04/16 06:20:31;;;;;;;2.83;2.13;;;5.00;99.90;;;;;;7551049;19;20047;-70
2023/04/16 06:23:04;;;;;;;4.30;2.95;;;5.20;99.90;;;;;;7518815;19;20018;-70
2023/04/16 06:25:36;;;;;;;5.78;3.20;;;5.10;99.90;;;;;;7558112;19;20019;-70
2023/04/16 06:28:09;;;;;;;3.63;2.87;;;5.10;99.90;;;;;;7511919;19;20026;-70
2023/04/16 06:30:41;;;;;;;5.55;3.17;;;5.20;99.90;;;;;;7528868;19;21024;-71
2023/04/16 06:33:15;;;;;;;4.60;3.13;;;5.30;99.90;;;;;;7542182;19;20984;-70
2023/04/16 06:35:47;;;;;;;9.20;3.92;;;5.20;99.90;;;;;;7551737;19;20034;-72
2023/04/16 06:38:20;;;;;;;12.30;7.28;;;5.30;99.90;;;;;;7525474;19;20029;-71
2023/04/16 06:40:52;;;;;;;9.57;4.65;;;5.30;99.90;;;;;;7544679;19;20018;-71
2023/04/16 06:43:25;;;;;;;4.15;2.90;;;5.40;99.90;;;;;;7542939;19;20629;-70
2023/04/16 06:45:57;;;;;;;2.60;2.20;;;5.60;99.90;;;;;;7550805;19;20059;-70
2023/04/16 06:48:29;;;;;;;4.18;2.40;;;5.60;99.90;;;;;;7550779;19;20011;-71
2023/04/16 06:51:02;;;;;;;3.60;2.10;;;5.60;99.90;;;;;;7534195;19;20044;-70
2023/04/16 06:53:36;;;;;;;2.90;1.90;;;5.70;99.90;;;;;;7544172;19;20021;-70
2023/04/16 06:56:08;;;;;;;5.07;2.47;;;5.60;99.90;;;;;;7562741;19;20059;-70
2023/04/16 06:58:40;;;;;;;3.10;2.03;;;5.70;99.90;;;;;;7561156;19;20904;-70
2023/04/16 07:01:12;;;;;;;6.03;3.00;;;5.70;99.90;;;;;;7556552;19;20612;-71
2023/04/16 07:03:45;;;;;;;3.50;1.92;;;5.70;99.90;;;;;;7553438;19;20038;-71
2023/04/16 07:06:18;;;;;;;5.73;3.50;;;5.80;99.90;;;;;;7553698;19;21346;-70
2023/04/16 07:08:50;;;;;;;2.47;1.88;;;5.80;99.90;;;;;;7564914;19;20630;-70
2023/04/16 07:11:22;;;;;;;2.58;2.13;;;5.80;99.90;;;;;;7546167;19;20036;-70
2023/04/16 07:13:54;;;;;;;1.73;1.20;;;5.80;99.90;;;;;;7586535;19;20031;-71
2023/04/16 07:16:26;;;;;;;3.58;1.70;;;5.90;99.90;;;;;;7560742;19;20014;-71
2023/04/16 07:18:59;;;;;;;3.95;1.83;;;5.90;99.90;;;;;;7571002;19;20014;-70
2023/04/16 07:21:31;;;;;;;3.80;1.80;;;5.90;99.90;;;;;;7565886;19;20074;-70
2023/04/16 07:24:04;;;;;;;1.20;1.10;;;5.90;99.90;;;;;;7561909;19;20025;-72
2023/04/16 07:26:36;;;;;;;1.40;1.08;;;5.90;99.90;;;;;;7553681;19;20327;-70
2023/04/16 07:29:09;;;;;;;2.05;1.25;;;5.90;99.90;;;;;;7542738;19;20026;-71
2023/04/16 07:31:42;;;;;;;1.70;1.40;;;6.00;99.90;;;;;;7565162;19;20936;-71
2023/04/16 07:34:14;;;;;;;0.90;0.90;;;6.00;99.90;;;;;;7533028;19;21143;-71
2023/04/16 07:36:47;;;;;;;2.88;0.70;;;6.10;99.90;;;;;;7522798;19;21041;-71
2023/04/16 07:39:19;;;;;;;1.10;1.00;;;6.10;99.90;;;;;;7527959;19;20019;-70
2023/04/16 07:41:51;;;;;;;1.65;1.25;;;6.10;99.90;;;;;;7524266;19;21311;-71
2023/04/16 07:44:23;;;;;;;2.90;0.98;;;6.10;99.90;;;;;;7549965;19;20098;-71
2023/04/16 07:46:56;;;;;;;3.05;1.10;;;6.10;99.90;;;;;;7535472;19;20105;-71
2023/04/16 07:49:28;;;;;;;1.92;1.23;;;6.10;99.90;;;;;;7540282;19;20024;-73
2023/04/16 07:52:01;;;;;;;1.33;0.82;;;6.20;99.90;;;;;;7532299;19;20336;-73
2023/04/16 07:54:33;;;;;;;2.43;1.33;;;6.20;99.90;;;;;;7529840;19;20026;-74
2023/04/16 07:57:05;;;;;;;1.67;0.95;;;6.10;99.90;;;;;;7514977;19;20037;-73
2023/04/16 07:59:37;;;;;;;2.65;1.17;;;6.20;99.90;;;;;;7517166;19;20011;-73
2023/04/16 08:02:15;;;;;;;1.20;0.75;;;6.20;99.90;;;;;;7488349;19;20029;-73
2023/04/16 08:04:48;;;;;;;4.05;1.50;;;6.20;99.90;;;;;;7497147;19;20419;-73
2023/04/16 08:07:20;;;;;;;1.48;1.38;;;6.30;99.90;;;;;;7520982;19;20029;-73
2023/04/16 08:09:53;;;;;;;2.35;1.38;;;6.20;99.90;;;;;;7499352;19;20585;-73
2023/04/16 08:12:25;;;;;;;4.40;1.63;;;6.30;99.90;;;;;;7537444;19;21285;-74
2023/04/16 08:14:58;;;;;;;1.70;1.10;;;6.30;99.90;;;;;;7524134;19;20023;-74
2023/04/16 08:17:31;;;;;;;2.78;1.27;;;6.40;99.90;;;;;;7479502;19;20054;-74
2023/04/16 08:20:05;;;;;;;2.15;1.45;;;6.40;99.90;;;;;;7524496;19;20470;-73
2023/04/16 08:22:37;;;;;;;2.55;1.10;;;6.30;99.90;;;;;;7546282;19;20740;-73
2023/04/16 08:25:10;;;;;;;1.27;0.93;;;6.50;99.90;;;;;;7524177;19;20043;-73
2023/04/16 08:27:42;;;;;;;3.50;1.13;;;6.60;99.90;;;;;;7501271;19;20014;-73
2023/04/16 08:30:15;;;;;;;2.30;1.27;;;6.60;99.90;;;;;;7527214;19;20023;-73
2023/04/16 08:32:48;;;;;;;2.55;1.67;;;6.60;99.90;;;;;;7557779;19;20014;-72
2023/04/16 08:35:21;;;;;;;1.08;0.82;;;6.60;99.90;;;;;;7522887;19;20098;-72
2023/04/16 08:37:54;;;;;;;2.00;1.13;;;6.70;99.90;;;;;;7537847;19;20014;-72
2023/04/16 08:40:28;;;;;;;2.72;1.42;;;6.80;99.90;;;;;;7505431;19;20022;-72
2023/04/16 08:43:03;;;;;;;5.38;1.30;;;6.80;99.90;;;;;;7496679;19;21113;-72
2023/04/16 08:45:37;;;;;;;1.42;0.90;;;6.90;99.90;;;;;;7538118;19;20014;-72
2023/04/16 08:48:11;;;;;;;3.33;2.13;;;6.90;99.90;;;;;;7519099;19;20019;-72
2023/04/16 08:50:45;;;;;;;3.22;1.98;;;6.90;99.90;;;;;;7527611;19;20236;-69
2023/04/16 08:53:21;;;;;;;1.33;0.85;;;6.90;99.90;;;;;;7526814;19;21095;-72
2023/04/16 08:55:58;;;;;;;3.58;1.30;;;7.10;99.90;;;;;;7534231;19;20808;-72
2023/04/16 08:58:34;;;;;;;1.98;1.25;;;7.20;99.90;;;;;;7514244;19;20006;-72
2023/04/16 09:01:08;;;;;;;2.05;1.23;;;7.20;99.90;;;;;;7533637;19;20019;-72
2023/04/16 09:03:41;;;;;;;0.95;0.68;;;7.30;99.90;;;;;;7534916;19;20010;-72
2023/04/16 09:06:17;;;;;;;1.15;1.05;;;7.40;99.90;;;;;;7510623;19;20870;-71
2023/04/16 09:08:53;;;;;;;1.00;0.80;;;7.40;99.90;;;;;;7531967;19;20098;-73
2023/04/16 09:11:26;;;;;;;2.88;2.25;;;7.50;99.90;;;;;;7542968;19;20021;-72
2023/04/16 09:14:00;;;;;;;1.77;1.20;;;7.50;99.90;;;;;;7508892;19;20021;-74
2023/04/16 09:16:33;;;;;;;1.45;1.20;;;7.60;99.90;;;;;;7498444;19;20495;-73
2023/04/16 09:19:06;;;;;;;1.97;0.70;;;7.80;99.90;;;;;;7502289;19;20110;-72
2023/04/16 09:21:41;;;;;;;1.13;1.02;;;7.90;99.90;;;;;;7488627;19;21092;-73
2023/04/16 09:24:13;;;;;;;0.60;0.50;;;8.00;99.90;;;;;;7481528;19;21258;-73
2023/04/16 09:26:51;;;;;;;1.13;1.00;;;7.90;99.90;;;;;;7482046;19;20018;-72
2023/04/16 09:29:39;;;;;;;2.22;1.90;;;7.80;99.90;;;;;;7504656;19;20082;-72
2023/04/16 09:32:11;;;;;;;1.15;0.90;;;7.90;99.90;;;;;;7491992;19;20022;-71
2023/04/16 09:35:00;;;;;;;1.80;1.52;;;8.00;99.90;;;;;;7517882;19;20022;-73
2023/04/16 09:37:33;;;;;;;1.25;1.10;;;8.20;99.90;;;;;;7498987;19;20054;-74
2023/04/16 09:40:06;;;;;;;3.15;2.85;;;8.20;99.90;;;;;;7488938;19;20014;-72
2023/04/16 09:42:39;;;;;;;1.33;0.82;;;8.30;99.90;;;;;;7503611;19;20528;-72
2023/04/16 09:45:11;;;;;;;1.48;0.60;;;8.40;99.90;;;;;;7527905;19;20018;-71
2023/04/16 09:47:45;;;;;;;0.60;0.60;;;8.40;99.90;;;;;;7513632;19;20018;-71
2023/04/16 09:50:18;;;;;;;3.47;2.10;;;8.30;99.90;;;;;;7520736;19;20022;-72
2023/04/16 09:52:51;;;;;;;0.95;0.90;;;8.40;99.90;;;;;;7469617;19;20051;-72
2023/04/16 09:55:26;;;;;;;1.00;0.90;;;8.40;99.90;;;;;;7475803;19;20015;-74
2023/04/16 09:57:59;;;;;;;0.60;0.60;;;8.40;99.90;;;;;;7486493;19;20082;-72
2023/04/16 10:00:32;;;;;;;;;;;8.40;99.90;;;;;;7491543;19;20014;-72
2023/04/16 10:03:05;;;;;;;0.70;0.70;;;8.40;99.90;;;;;;7500358;19;19930;-71
2023/04/16 10:05:38;;;;;;;0.70;0.70;;;8.40;99.90;;;;;;7493916;19;20146;-71
2023/04/16 10:08:12;;;;;;;0.70;0.70;;;8.20;99.90;;;;;;7484762;19;20027;-72
2023/04/16 10:10:44;;;;;;;;;;;8.40;99.90;;;;;;7505990;19;20011;-72
2023/04/16 10:13:18;;;;;;;0.63;0.63;;;8.50;99.90;;;;;;7465733;19;19938;-71
2023/04/16 10:15:50;;;;;;;1.15;0.70;;;8.60;99.90;;;;;;7435601;19;21875;-71
2023/04/16 10:18:23;;;;;;;2.60;0.90;;;8.70;99.90;;;;;;7428762;19;20137;-71
2023/04/16 10:20:56;;;;;;;1.13;1.00;;;8.80;99.90;;;;;;7461120;19;20021;-71
2023/04/16 10:23:29;;;;;;;2.15;1.38;;;8.90;99.90;;;;;;7462540;19;20209;-71
2023/04/16 10:26:02;;;;;;;1.13;0.80;;;8.90;99.90;;;;;;7510514;19;20011;-71
2023/04/16 10:28:35;;;;;;;1.35;0.80;;;8.90;99.90;;;;;;7527521;19;20018;-70
2023/04/16 10:31:08;;;;;;;1.17;1.05;;;8.80;99.90;;;;;;7495325;19;20015;-72
2023/04/16 10:33:43;;;;;;;2.00;1.15;;;8.70;99.90;;;;;;7482148;19;20038;-72
2023/04/16 10:36:21;;;;;;;2.78;1.45;;;8.60;99.90;;;;;;7496997;19;20014;-72
2023/04/16 10:38:58;;;;;;;1.92;1.50;;;8.60;99.90;;;;;;7512811;19;21103;-72
2023/04/16 10:41:32;;;;;;;1.98;1.10;;;8.50;99.90;;;;;;7518584;19;20094;-71
2023/04/16 10:44:09;;;;;;;2.75;1.58;;;8.60;99.90;;;;;;7491432;19;20014;-72
2023/04/16 10:46:49;;;;;;;1.60;1.40;;;8.60;99.90;;;;;;7543864;19;20022;-72
2023/04/16 10:49:22;;;;;;;0.88;0.70;;;8.70;99.90;;;;;;7563180;19;20015;-72
2023/04/16 10:52:00;;;;;;;1.17;1.02;;;8.70;99.90;;;;;;7495713;19;20041;-73
2023/04/16 10:54:35;;;;;;;1.50;1.10;;;8.70;99.90;;;;;;7526369;19;20015;-73
2023/04/16 10:57:11;;;;;;;2.90;1.35;;;8.60;99.90;;;;;;7511617;19;20010;-72
2023/04/16 10:59:44;;;;;;;1.30;1.10;;;8.60;99.90;;;;;;7486802;19;20642;-71
2023/04/16 11:02:17;;;;;;;1.00;0.90;;;8.70;99.90;;;;;;7524033;19;20014;-72
2023/04/16 11:04:50;;;;;;;;;;;8.70;99.90;;;;;;7518093;19;20034;-73
2023/04/16 11:07:33;;;;;;;1.38;1.15;;;8.80;99.90;;;;;;7520794;19;19926;-71
2023/04/16 11:10:11;;;;;;;1.93;1.30;;;8.70;99.90;;;;;;7521135;19;20022;-72
2023/04/16 11:12:46;;;;;;;1.10;1.00;;;8.70;99.90;;;;;;7517714;19;20019;-72
2023/04/16 11:15:19;;;;;;;1.10;0.90;;;8.70;99.90;;;;;;7523732;19;20048;-72
2023/04/16 11:17:51;;;;;;;1.23;1.13;;;8.80;99.90;;;;;;7534350;19;20082;-71
2023/04/16 11:20:25;;;;;;;0.95;0.80;;;8.80;99.90;;;;;;7510585;19;20014;-72
2023/04/16 11:22:58;;;;;;;1.15;0.80;;;9.00;99.90;;;;;;7521095;19;20303;-73
2023/04/16 11:25:33;;;;;;;1.38;0.80;;;9.20;99.90;;;;;;7549785;19;20010;-73
2023/04/16 11:28:05;;;;;;;1.35;1.10;;;9.40;99.90;;;;;;7554923;19;20578;-73
2023/04/16 11:30:39;;;;;;;0.97;0.77;;;9.50;99.90;;;;;;7550518;19;20006;-72
2023/04/16 11:33:11;;;;;;;0.70;0.70;;;9.50;99.90;;;;;;7556903;19;20513;-73
2023/04/16 11:35:54;;;;;;;0.97;0.87;;;9.40;99.90;;;;;;7546735;19;20106;-73
2023/04/16 11:38:39;;;;;;;1.05;1.00;;;9.30;99.90;;;;;;7544652;19;20362;-73
2023/04/16 11:41:18;;;;;;;0.80;0.80;;;9.20;99.90;;;;;;7561335;19;20010;-74
2023/04/16 11:43:51;;;;;;;1.10;1.00;;;9.10;99.90;;;;;;7531924;19;20022;-73
2023/04/16 11:46:37;;;;;;;1.25;1.15;;;9.00;99.90;;;;;;7535779;19;20018;-73
2023/04/16 11:49:09;;;;;;;2.10;1.02;;;8.90;99.90;;;;;;7532450;19;21091;-74
2023/04/16 11:51:46;;;;;;;1.27;0.90;;;8.80;99.90;;;;;;7532849;19;20944;-73
2023/04/16 11:54:19;;;;;;;0.80;0.73;;;8.80;99.90;;;;;;7529851;19;20018;-73
2023/04/16 11:56:52;;;;;;;;;;;8.80;99.90;;;;;;7528414;19;20022;-73
2023/04/16 11:59:25;;;;;;;1.30;1.00;;;8.80;99.90;;;;;;7531895;19;19959;-73
2023/04/16 12:01:58;;;;;;;1.17;1.05;;;8.70;99.90;;;;;;7548586;19;25235;-71
2023/04/16 12:04:33;;;;;;;1.70;1.33;;;8.80;99.90;;;;;;7553429;19;20014;-70
2023/04/16 12:07:13;;;;;;;1.45;1.13;;;8.90;99.90;;;;;;7468699;19;20030;-71
2023/04/16 12:09:45;;;;;;;1.88;1.60;;;8.90;99.90;;;;;;7517811;19;20872;-71
2023/04/16 12:12:31;;;;;;;1.70;1.10;;;9.00;99.90;;;;;;7519378;19;20387;-71
2023/04/16 12:15:04;;;;;;;3.25;1.00;;;9.10;99.90;;;;;;7520561;19;20051;-70
2023/04/16 12:17:37;;;;;;;;;;;9.00;99.90;;;;;;7509390;19;20021;-70
2023/04/16 12:20:14;;;;;;;4.13;1.33;;;9.00;99.90;;;;;;7556779;19;21901;-72
2023/04/16 12:22:48;;;;;;;2.28;1.38;;;9.00;99.90;;;;;;7535854;19;20037;-72
2023/04/16 12:25:23;;;;;;;1.30;1.20;;;8.90;99.90;;;;;;7513834;19;20017;-71
2023/04/16 12:27:56;;;;;;;1.27;1.13;;;8.90;99.90;;;;;;7561034;19;20561;-71
2023/04/16 12:30:30;;;;;;;2.70;1.17;;;8.90;99.90;;;;;;7551963;19;20633;-71
2023/04/16 12:33:16;;;;;;;1.40;1.10;;;9.00;99.90;;;;;;7533099;19;20019;-72
2023/04/16 12:35:49;;;;;;;1.73;1.00;;;9.00;99.90;;;;;;7517900;19;20023;-72
2023/04/16 12:38:21;;;;;;;1.33;1.23;;;9.00;99.90;;;;;;7553668;19;20030;-72
2023/04/16 12:40:57;;;;;;;2.10;1.50;;;8.80;99.90;;;;;;7572752;19;20018;-72
2023/04/16 12:43:29;;;;;;;1.55;1.27;;;8.80;99.90;;;;;;7542451;19;20018;-72
2023/04/16 12:46:02;;;;;;;2.13;1.50;;;8.90;99.90;;;;;;7518060;19;20025;-70
2023/04/16 12:48:35;;;;;;;1.45;1.35;;;9.00;99.90;;;;;;7533259;19;20022;-71
2023/04/16 12:51:07;;;;;;;1.92;1.35;;;8.90;99.90;;;;;;7521211;19;20071;-71
2023/04/16 12:53:40;;;;;;;1.23;1.13;;;8.90;99.90;;;;;;7536828;19;20014;-69
2023/04/16 12:56:13;;;;;;;2.40;1.13;;;8.90;99.90;;;;;;7548969;19;20019;-69
2023/04/16 12:58:45;;;;;;;1.45;1.20;;;9.00;99.90;;;;;;7517467;19;20022;-70
2023/04/16 13:01:18;;;;;;;1.23;1.13;;;8.90;99.90;;;;;;7544061;19;20522;-69
2023/04/16 13:03:51;;;;;;;1.58;1.27;;;8.80;99.90;;;;;;7513825;19;20019;-70
2023/04/16 13:06:24;;;;;;;1.20;1.00;;;8.80;99.90;;;;;;7539794;19;20108;-68
2023/04/16 13:08:56;;;;;;;1.23;1.08;;;8.80;99.90;;;;;;7544355;19;20033;-69
2023/04/16 13:11:28;;;;;;;1.77;1.27;;;8.90;99.90;;;;;;7533442;19;20059;-70
2023/04/16 13:14:01;;;;;;;1.50;1.30;;;8.90;99.90;;;;;;7531356;19;20141;-71
2023/04/16 13:16:34;;;;;;;0.98;0.90;;;9.00;99.90;;;;;;7510357;19;20037;-69
2023/04/16 13:19:06;;;;;;;2.77;1.50;;;8.90;99.90;;;;;;7547266;19;20011;-71
2023/04/16 13:21:39;;;;;;;2.03;1.50;;;8.90;99.90;;;;;;7543048;19;21595;-69
2023/04/16 13:24:12;;;;;;;2.75;1.40;;;8.90;99.90;;;;;;7546574;19;20121;-69